Time;durP1;ratioP1;P1;durP2;ratioP2;P2;SDS_P1;SDS_P2;PMS_P1;PMS_P2;Temp;Humidity;BMP_temperature;BMP_pressure;BME280_temperature;BME280_humidity;BME280_pressure;Samples;Min_cycle;Max_cycle;Signal;HPM_P1;HPM_P2
2022/04/12 00:00:03;;;;;;;2.37;2.17;;;4.90;99.90;;;;;;5053615;28;20206;-80
2022/04/12 00:02:29;;;;;;;4.37;2.40;;;5.00;99.90;;;;;;5041919;28;20258;-80
2022/04/12 00:04:55;;;;;;;2.50;2.30;;;5.00;99.90;;;;;;5040862;28;20629;-81
2022/04/12 00:07:21;;;;;;;2.40;2.20;;;4.90;99.90;;;;;;5041854;28;20183;-81
2022/04/12 00:09:47;;;;;;;2.57;2.37;;;4.80;99.90;;;;;;5039954;28;20237;-81
2022/04/12 00:12:15;;;;;;;2.90;2.60;;;4.80;99.90;;;;;;5040411;28;20285;-81
2022/04/12 00:14:41;;;;;;;2.80;2.30;;;4.70;99.90;;;;;;5040684;28;20210;-82
2022/04/12 00:19:52;;;;;;;3.33;2.50;;;4.70;99.90;;;;;;5042498;28;20440;-81
2022/04/12 00:22:18;;;;;;;3.83;2.23;;;4.60;99.90;;;;;;5041305;28;20199;-81
2022/04/12 00:24:43;;;;;;;3.03;2.50;;;4.50;99.90;;;;;;5041222;28;20178;-81
2022/04/12 00:27:09;;;;;;;3.93;2.00;;;4.50;99.90;;;;;;5040705;28;20178;-81
2022/04/12 00:29:35;;;;;;;2.23;2.00;;;4.50;99.90;;;;;;5042137;28;20540;-81
2022/04/12 00:32:00;;;;;;;2.70;2.20;;;4.50;99.90;;;;;;5040309;28;20184;-81
2022/04/12 00:34:26;;;;;;;3.80;2.30;;;4.50;99.90;;;;;;5039049;28;20248;-82
2022/04/12 00:36:52;;;;;;;3.37;2.73;;;4.50;99.90;;;;;;5043205;28;20717;-81
2022/04/12 00:39:17;;;;;;;4.53;2.20;;;4.50;99.90;;;;;;5045235;28;20279;-81
2022/04/12 00:41:43;;;;;;;2.60;1.97;;;4.50;99.90;;;;;;5044692;28;20175;-81
2022/04/12 00:44:08;;;;;;;2.50;2.30;;;4.50;99.90;;;;;;5043222;28;20312;-81
2022/04/12 00:46:35;;;;;;;2.63;2.17;;;4.40;99.90;;;;;;5043631;28;20516;-81
2022/04/12 00:49:00;;;;;;;2.77;2.40;;;4.40;99.90;;;;;;5045125;28;20171;-81
2022/04/12 00:51:27;;;;;;;2.47;2.20;;;4.40;99.90;;;;;;5045210;28;20182;-81
2022/04/12 00:53:54;;;;;;;2.20;1.90;;;4.40;99.90;;;;;;5043297;28;20185;-81
2022/04/12 00:56:19;;;;;;;2.90;2.13;;;4.40;99.90;;;;;;5043618;28;20170;-81
2022/04/12 00:58:49;;;;;;;2.37;2.00;;;4.40;99.90;;;;;;5045089;28;20170;-81
2022/04/12 01:01:15;;;;;;;2.63;2.43;;;4.40;99.90;;;;;;5043603;28;20185;-82
2022/04/12 01:03:41;;;;;;;2.33;1.93;;;4.30;99.90;;;;;;5043890;28;20538;-81
2022/04/12 01:06:07;;;;;;;2.40;1.70;;;4.70;99.90;;;;;;5044385;28;20205;-81
2022/04/12 01:08:34;;;;;;;2.97;1.80;;;4.40;99.90;;;;;;5043509;28;20240;-82
2022/04/12 01:11:06;;;;;;;3.53;2.20;;;4.30;99.90;;;;;;5043639;28;20591;-82
2022/04/12 01:13:33;;;;;;;2.10;1.90;;;4.40;99.90;;;;;;5044309;28;20158;-83
2022/04/12 01:15:59;;;;;;;1.63;1.43;;;4.50;99.90;;;;;;5044860;28;20262;-82
2022/04/12 01:18:24;;;;;;;2.93;1.80;;;4.50;99.90;;;;;;5043272;28;20211;-81
2022/04/12 01:20:50;;;;;;;2.23;1.60;;;4.40;99.90;;;;;;5044470;28;20217;-81
2022/04/12 01:23:23;;;;;;;2.60;2.13;;;4.40;99.90;;;;;;5043357;28;20299;-82
2022/04/12 01:25:48;;;;;;;2.73;2.00;;;4.40;99.90;;;;;;5043175;28;20170;-81
2022/04/12 01:28:14;;;;;;;1.93;1.70;;;4.40;99.90;;;;;;5044482;28;20187;-81
2022/04/12 01:30:40;;;;;;;2.77;2.03;;;4.30;99.90;;;;;;5044227;28;20198;-81
2022/04/12 01:33:06;;;;;;;4.17;2.23;;;4.30;99.90;;;;;;5043268;28;20183;-82
2022/04/12 01:35:32;;;;;;;1.50;1.40;;;4.30;99.90;;;;;;5044485;28;20354;-82
2022/04/12 01:37:58;;;;;;;2.43;1.80;;;4.30;99.90;;;;;;5055003;28;20198;-81
2022/04/12 01:40:24;;;;;;;4.47;1.90;;;4.30;99.90;;;;;;5051221;28;20194;-81
2022/04/12 01:42:52;;;;;;;4.30;2.27;;;4.30;99.90;;;;;;5046603;28;20182;-81
2022/04/12 01:45:19;;;;;;;2.30;1.60;;;4.20;99.90;;;;;;5052340;28;20186;-81
2022/04/12 01:47:45;;;;;;;2.50;1.80;;;4.30;99.90;;;;;;5047619;28;20248;-82
2022/04/12 01:50:10;;;;;;;2.93;1.50;;;4.40;99.90;;;;;;5044338;28;20223;-81
2022/04/12 01:52:36;;;;;;;2.27;1.87;;;4.40;99.90;;;;;;5043991;28;20179;-81
2022/04/12 01:55:03;;;;;;;1.60;1.30;;;4.40;99.90;;;;;;5041664;28;20747;-81
2022/04/12 01:57:29;;;;;;;2.37;1.50;;;4.40;99.90;;;;;;5042256;28;20179;-82
2022/04/12 01:59:56;;;;;;;1.90;1.70;;;4.50;99.90;;;;;;5041866;28;20201;-81
2022/04/12 02:02:22;;;;;;;1.97;1.80;;;4.50;99.90;;;;;;5041864;28;20216;-82
2022/04/12 02:04:48;;;;;;;4.43;1.90;;;4.50;99.90;;;;;;5041978;28;20242;-82
2022/04/12 02:07:13;;;;;;;1.63;1.47;;;4.50;99.90;;;;;;5041814;28;20249;-81
2022/04/12 02:09:39;;;;;;;2.70;1.67;;;4.40;99.90;;;;;;5043530;28;20559;-81
2022/04/12 02:12:05;;;;;;;2.47;1.70;;;4.40;99.90;;;;;;5040951;28;20183;-82
2022/04/12 02:14:30;;;;;;;2.17;1.80;;;4.40;99.90;;;;;;5040899;28;20242;-81
2022/04/12 02:16:56;;;;;;;5.73;1.60;;;4.40;99.90;;;;;;5043917;28;20624;-81
2022/04/12 02:19:22;;;;;;;1.77;1.60;;;4.40;99.90;;;;;;5041882;28;20194;-82
2022/04/12 02:21:47;;;;;;;2.13;1.80;;;4.30;99.90;;;;;;5041448;28;20174;-81
2022/04/12 02:24:13;;;;;;;2.03;1.57;;;4.30;99.90;;;;;;5041902;28;20175;-81
2022/04/12 02:26:39;;;;;;;1.83;1.63;;;4.30;99.90;;;;;;5042960;28;20185;-82
2022/04/12 02:29:06;;;;;;;2.27;1.60;;;4.30;99.90;;;;;;5040722;28;20175;-82
2022/04/12 02:31:33;;;;;;;2.07;1.60;;;4.30;99.90;;;;;;5041759;28;20175;-81
2022/04/12 02:33:58;;;;;;;4.07;1.80;;;4.30;99.90;;;;;;5040948;28;20207;-81
2022/04/12 02:36:24;;;;;;;2.00;1.60;;;4.30;99.90;;;;;;5040811;28;20174;-81
2022/04/12 02:38:50;;;;;;;1.70;1.60;;;4.30;99.90;;;;;;5040554;28;20182;-81
2022/04/12 02:41:15;;;;;;;2.37;1.53;;;4.30;99.90;;;;;;5040921;28;20235;-81
2022/04/12 02:43:41;;;;;;;2.63;1.80;;;4.30;99.90;;;;;;5040201;28;20175;-81
2022/04/12 02:46:07;;;;;;;2.00;1.63;;;4.30;99.90;;;;;;5039898;28;20652;-81
2022/04/12 02:48:32;;;;;;;2.00;1.43;;;4.30;99.90;;;;;;5037678;28;20277;-81
2022/04/12 02:50:58;;;;;;;2.93;1.60;;;4.20;99.90;;;;;;5036394;28;20207;-81
2022/04/12 02:53:24;;;;;;;4.67;1.77;;;4.20;99.90;;;;;;5037984;28;20563;-82
2022/04/12 02:55:49;;;;;;;2.23;1.60;;;4.20;99.90;;;;;;5042288;28;20657;-81
2022/04/12 02:58:15;;;;;;;3.13;1.77;;;4.10;99.90;;;;;;5042378;28;20246;-81
2022/04/12 03:00:41;;;;;;;3.17;1.77;;;;;;;;;;5041350;28;20297;-81
2022/04/12 03:03:07;;;;;;;2.20;1.70;;;4.10;99.90;;;;;;5040300;28;20261;-81
2022/04/12 03:05:32;;;;;;;2.60;1.90;;;4.20;99.90;;;;;;5041627;28;20464;-82
2022/04/12 03:07:58;;;;;;;2.67;2.00;;;4.00;99.90;;;;;;5041752;28;20253;-82
2022/04/12 03:10:24;;;;;;;3.43;1.90;;;4.00;99.90;;;;;;5040212;28;20702;-82
2022/04/12 03:12:50;;;;;;;2.40;2.20;;;4.00;99.90;;;;;;5041600;28;20163;-82
2022/04/12 03:15:16;;;;;;;2.53;2.20;;;4.00;99.90;;;;;;5041138;28;20671;-81
2022/04/12 03:17:41;;;;;;;6.73;2.43;;;3.90;99.90;;;;;;5042030;28;20425;-81
2022/04/12 03:20:08;;;;;;;3.60;2.00;;;3.90;99.90;;;;;;5041151;28;20202;-81
2022/04/12 03:22:33;;;;;;;2.97;2.07;;;3.80;99.90;;;;;;5044014;28;20174;-82
2022/04/12 03:25:01;;;;;;;4.17;2.00;;;3.90;99.90;;;;;;5044053;28;20430;-82
2022/04/12 03:27:27;;;;;;;2.60;1.73;;;3.80;99.90;;;;;;5055808;28;20188;-81
2022/04/12 03:29:53;;;;;;;4.60;1.90;;;3.70;99.90;;;;;;5040512;28;20535;-82
2022/04/12 03:32:18;;;;;;;2.80;2.00;;;3.70;99.90;;;;;;5041195;28;20850;-81
2022/04/12 03:34:45;;;;;;;4.70;1.57;;;3.70;99.90;;;;;;5049320;28;20213;-80
2022/04/12 03:37:11;;;;;;;1.43;1.33;;;3.70;99.90;;;;;;5042212;28;20186;-82
2022/04/12 03:39:37;;;;;;;1.93;1.60;;;3.70;99.90;;;;;;5037720;28;20444;-82
2022/04/12 03:42:04;;;;;;;4.27;2.03;;;3.70;99.90;;;;;;5038654;28;20527;-82
2022/04/12 03:44:31;;;;;;;1.70;1.60;;;3.70;99.90;;;;;;5037404;28;20182;-82
2022/04/12 03:46:57;;;;;;;2.50;1.70;;;3.80;99.90;;;;;;5038037;28;20941;-82
2022/04/12 03:49:22;;;;;;;2.53;1.90;;;3.80;99.90;;;;;;5037568;28;20444;-82
2022/04/12 03:51:48;;;;;;;2.50;1.67;;;3.80;99.90;;;;;;5037703;28;20424;-82
2022/04/12 03:54:14;;;;;;;2.13;1.30;;;3.90;99.90;;;;;;5039167;28;20273;-82
2022/04/12 03:56:41;;;;;;;2.23;1.80;;;3.80;99.90;;;;;;5038138;28;20186;-81
2022/04/12 03:59:07;;;;;;;4.20;1.90;;;;;;;;;;5038853;28;20166;-81
2022/04/12 04:01:33;;;;;;;2.20;1.50;;;3.90;99.90;;;;;;5037314;28;20786;-82
2022/04/12 04:03:58;;;;;;;2.63;1.43;;;3.90;99.90;;;;;;5038405;28;20413;-82
2022/04/12 04:06:24;;;;;;;1.50;1.40;;;3.90;99.90;;;;;;5038226;28;20178;-82
2022/04/12 04:08:50;;;;;;;3.63;1.70;;;3.90;99.90;;;;;;5038667;28;20211;-82
2022/04/12 04:11:16;;;;;;;7.50;2.07;;;4.00;99.90;;;;;;5036876;28;20206;-82
2022/04/12 04:13:42;;;;;;;2.80;1.60;;;3.90;99.90;;;;;;5039080;28;20265;-82
2022/04/12 04:16:08;;;;;;;3.47;1.80;;;3.90;99.90;;;;;;5038607;28;20213;-82
2022/04/12 04:18:34;;;;;;;5.03;1.93;;;3.90;99.90;;;;;;5038059;28;20182;-82
2022/04/12 04:21:00;;;;;;;2.73;1.70;;;3.90;99.90;;;;;;5039762;28;20194;-82
2022/04/12 04:23:26;;;;;;;2.30;2.10;;;;;;;;;;5038681;28;20421;-82
2022/04/12 04:25:52;;;;;;;4.10;2.63;;;3.80;99.90;;;;;;5039149;28;20921;-82
2022/04/12 04:28:26;;;;;;;2.90;2.23;;;3.90;99.90;;;;;;5041281;28;20178;-82
2022/04/12 04:30:52;;;;;;;3.47;2.30;;;3.90;99.90;;;;;;5054716;28;20253;-81
2022/04/12 04:33:19;;;;;;;5.83;2.30;;;3.90;99.90;;;;;;5043272;28;20408;-82
2022/04/12 04:35:46;;;;;;;4.80;2.77;;;;;;;;;;5038135;28;20256;-82
2022/04/12 04:38:11;;;;;;;4.87;2.80;;;4.00;99.90;;;;;;5038921;28;20429;-82
2022/04/12 04:40:37;;;;;;;5.63;2.97;;;;;;;;;;5039204;28;20436;-82
2022/04/12 04:43:04;;;;;;;3.00;2.27;;;;;;;;;;5039303;28;20178;-82
2022/04/12 04:45:29;;;;;;;3.47;2.00;;;3.90;99.90;;;;;;5039127;28;20421;-83
2022/04/12 04:48:00;;;;;;;2.10;1.90;;;3.90;99.90;;;;;;5038575;28;20504;-82
2022/04/12 04:50:30;;;;;;;4.13;1.80;;;3.80;99.90;;;;;;5039078;28;20202;-83
2022/04/12 04:53:02;;;;;;;4.07;1.70;;;3.80;99.90;;;;;;5039291;28;20445;-82
2022/04/12 04:55:28;;;;;;;3.33;2.63;;;4.40;99.90;;;;;;5039626;28;20536;-83
2022/04/12 04:57:58;;;;;;;3.37;2.40;;;3.90;99.90;;;;;;5039851;28;20431;-83
2022/04/12 05:00:29;;;;;;;3.70;2.77;;;3.80;99.90;;;;;;5044947;28;20460;-82
2022/04/12 05:02:55;;;;;;;6.00;3.00;;;3.90;99.90;;;;;;5039713;28;20404;-83
2022/04/12 05:05:21;;;;;;;2.80;2.50;;;3.80;99.90;;;;;;5038276;28;20428;-83
2022/04/12 05:07:49;;;;;;;7.13;2.33;;;3.80;99.90;;;;;;5035822;28;20435;-82
2022/04/12 05:10:23;;;;;;;7.47;2.00;;;3.90;99.90;;;;;;5036509;28;20428;-82
2022/04/12 05:12:49;;;;;;;4.47;1.63;;;3.90;99.90;;;;;;5036090;28;20427;-82
2022/04/12 05:15:16;;;;;;;3.40;2.43;;;3.90;99.90;;;;;;5035912;28;20560;-82
2022/04/12 05:17:50;;;;;;;4.63;2.03;;;4.10;99.90;;;;;;5035654;28;20421;-82
2022/04/12 05:20:17;;;;;;;5.77;2.57;;;4.00;99.90;;;;;;5034833;28;20448;-82
2022/04/12 05:22:43;;;;;;;3.13;2.10;;;;;;;;;;5038854;28;20436;-82
2022/04/12 05:25:09;;;;;;;2.57;1.83;;;;;;;;;;5039063;28;20417;-82
2022/04/12 05:27:36;;;;;;;3.03;1.60;;;4.30;99.90;;;;;;5038517;28;20857;-83
2022/04/12 05:30:03;;;;;;;2.37;1.43;;;4.30;99.90;;;;;;5040499;28;20439;-82
2022/04/12 05:32:29;;;;;;;4.93;2.00;;;4.40;99.90;;;;;;5040347;28;20426;-79
2022/04/12 05:34:55;;;;;;;5.67;1.87;;;;;;;;;;5040349;28;20456;-79
2022/04/12 05:37:21;;;;;;;4.77;1.63;;;4.50;99.90;;;;;;5039900;28;20196;-78
2022/04/12 05:39:47;;;;;;;2.03;1.53;;;4.60;99.90;;;;;;5041188;28;20493;-79
2022/04/12 05:42:12;;;;;;;5.33;1.83;;;4.60;99.90;;;;;;5039492;28;20607;-80
2022/04/12 05:44:38;;;;;;;3.90;2.43;;;4.80;99.90;;;;;;5038205;28;20273;-80
2022/04/12 05:47:04;;;;;;;6.87;1.60;;;4.80;99.90;;;;;;5039215;28;20647;-80
2022/04/12 05:49:31;;;;;;;10.50;2.63;;;4.90;99.90;;;;;;5039682;28;20206;-80
2022/04/12 05:51:57;;;;;;;5.03;2.17;;;5.00;99.90;;;;;;5039999;28;20425;-80
2022/04/12 05:54:23;;;;;;;4.83;2.27;;;5.10;99.90;;;;;;5038138;28;20471;-80
2022/04/12 05:56:49;;;;;;;5.70;2.53;;;5.30;99.90;;;;;;5037610;28;20420;-80
2022/04/12 05:59:15;;;;;;;2.33;1.93;;;5.40;99.90;;;;;;5036408;28;20444;-81
2022/04/12 06:01:41;;;;;;;6.87;2.40;;;5.60;99.90;;;;;;5036546;28;20774;-81
2022/04/12 06:04:07;;;;;;;7.80;2.67;;;5.70;99.90;;;;;;5041931;28;20178;-80
2022/04/12 06:06:34;;;;;;;11.93;2.17;;;5.90;99.90;;;;;;5040782;28;20182;-81
2022/04/12 06:09:00;;;;;;;6.57;2.60;;;6.20;99.90;;;;;;5043034;28;20445;-83
2022/04/12 06:11:26;;;;;;;8.07;2.97;;;6.20;99.90;;;;;;5040323;28;20524;-84
2022/04/12 06:13:52;;;;;;;5.43;2.07;;;6.40;99.90;;;;;;5039550;28;20648;-84
2022/04/12 06:16:18;;;;;;;8.13;2.53;;;6.60;99.90;;;;;;5040279;28;20297;-83
2022/04/12 06:18:44;;;;;;;6.93;2.30;;;6.70;99.90;;;;;;5039909;28;20452;-84
2022/04/12 06:21:09;;;;;;;11.23;2.43;;;6.90;99.90;;;;;;5041536;28;20199;-84
2022/04/12 06:23:35;;;;;;;4.87;2.03;;;7.00;99.90;;;;;;5058401;28;20214;-84
2022/04/12 06:26:01;;;;;;;8.30;2.27;;;7.10;99.90;;;;;;5049589;28;20562;-84
2022/04/12 06:28:27;;;;;;;6.73;2.20;;;7.20;99.90;;;;;;5051629;28;20209;-83
2022/04/12 06:30:54;;;;;;;2.73;1.57;;;7.40;99.90;;;;;;5048965;28;20213;-83
2022/04/12 06:33:19;;;;;;;10.63;2.40;;;7.50;99.90;;;;;;5043280;28;20903;-84
2022/04/12 06:35:45;;;;;;;8.23;2.00;;;7.50;99.90;;;;;;5041901;28;20356;-84
2022/04/12 06:38:11;;;;;;;4.93;2.00;;;7.60;99.90;;;;;;5041651;28;20190;-84
2022/04/12 06:40:38;;;;;;;7.33;2.27;;;7.60;99.90;;;;;;5041608;28;20194;-84
2022/04/12 06:43:04;;;;;;;6.07;1.83;;;7.70;99.90;;;;;;5041930;28;20171;-84
2022/04/12 06:45:29;;;;;;;10.03;2.50;;;7.80;99.90;;;;;;5042185;28;20211;-84
2022/04/12 06:47:59;;;;;;;4.27;1.50;;;7.90;99.90;;;;;;5041963;28;20186;-84
2022/04/12 06:50:26;;;;;;;4.10;1.40;;;7.90;99.90;;;;;;5042351;28;20624;-84
2022/04/12 06:52:54;;;;;;;2.00;1.30;;;8.10;99.90;;;;;;5043868;28;20214;-84
2022/04/12 06:55:21;;;;;;;4.93;1.70;;;8.10;99.90;;;;;;5044254;28;20213;-84
2022/04/12 06:57:47;;;;;;;5.40;1.97;;;8.30;99.90;;;;;;5044101;28;20580;-84
2022/04/12 07:00:13;;;;;;;3.77;1.50;;;8.40;99.90;;;;;;5044159;28;20221;-84
2022/04/12 07:02:39;;;;;;;2.63;1.10;;;8.50;99.90;;;;;;5042504;28;20205;-84
2022/04/12 07:05:06;;;;;;;1.60;1.30;;;8.60;99.90;;;;;;5043823;28;20174;-84
2022/04/12 07:07:34;;;;;;;2.67;1.60;;;8.60;99.90;;;;;;5041689;28;20178;-84
2022/04/12 07:10:00;;;;;;;3.93;1.30;;;8.80;99.90;;;;;;5040786;28;20268;-84
2022/04/12 07:12:26;;;;;;;1.80;1.30;;;8.90;99.90;;;;;;5041129;28;20661;-83
2022/04/12 07:14:52;;;;;;;2.53;1.30;;;9.10;99.90;;;;;;5040549;28;20214;-83
2022/04/12 07:17:18;;;;;;;3.77;1.87;;;9.50;99.90;;;;;;5042109;28;20183;-84
2022/04/12 07:19:44;;;;;;;2.97;1.70;;;10.10;99.90;;;;;;5043498;28;20198;-84
2022/04/12 07:22:10;;;;;;;3.30;1.50;;;10.60;98.90;;;;;;5045580;28;20180;-84
2022/04/12 07:24:36;;;;;;;4.47;1.50;;;11.00;97.30;;;;;;5045423;28;20185;-84
2022/04/12 07:27:02;;;;;;;4.73;1.13;;;11.40;95.60;;;;;;5044845;28;20174;-84
2022/04/12 07:29:27;;;;;;;2.27;1.60;;;11.70;94.80;;;;;;5043717;28;20683;-85
2022/04/12 07:31:53;;;;;;;2.13;1.23;;;12.20;94.00;;;;;;5043817;28;20253;-85
2022/04/12 07:34:19;;;;;;;7.73;1.57;;;12.60;93.70;;;;;;5044140;28;20182;-85
2022/04/12 07:36:47;;;;;;;5.83;1.17;;;13.10;92.30;;;;;;5043994;28;20697;-85
2022/04/12 07:39:16;;;;;;;5.10;1.23;;;13.60;90.70;;;;;;5044557;28;20203;-85
2022/04/12 07:41:42;;;;;;;6.57;1.80;;;13.80;89.10;;;;;;5045853;28;20174;-85
2022/04/12 07:44:08;;;;;;;4.03;1.80;;;14.40;87.50;;;;;;5046399;28;20186;-85
2022/04/12 07:46:34;;;;;;;4.20;1.43;;;15.40;83.80;;;;;;5043348;28;20182;-84
2022/04/12 07:48:59;;;;;;;6.03;1.50;;;16.40;78.90;;;;;;5045492;28;20174;-85
2022/04/12 07:51:25;;;;;;;4.73;1.23;;;17.10;67.80;;;;;;5045697;28;20209;-85
2022/04/12 07:53:51;;;;;;;2.33;1.00;;;17.60;67.00;;;;;;5046552;28;20222;-85
2022/04/12 07:56:17;;;;;;;1.63;1.00;;;18.10;65.80;;;;;;5058354;28;20232;-85
2022/04/12 07:58:43;;;;;;;2.83;1.00;;;18.30;62.30;;;;;;5044323;28;20185;-85
2022/04/12 08:01:09;;;;;;;3.20;0.93;;;18.50;62.50;;;;;;5044313;28;20212;-85
2022/04/12 08:03:36;;;;;;;1.80;1.10;;;18.80;62.70;;;;;;5042571;28;20185;-85
2022/04/12 08:06:02;;;;;;;2.47;1.10;;;19.10;63.50;;;;;;5043104;28;20176;-86
2022/04/12 08:08:29;;;;;;;3.53;1.20;;;19.70;64.10;;;;;;5043301;28;20211;-86
2022/04/12 08:10:54;;;;;;;2.60;1.47;;;20.20;62.60;;;;;;5043468;28;20286;-86
2022/04/12 08:13:20;;;;;;;4.97;1.40;;;20.60;56.80;;;;;;5044146;28;20521;-86
2022/04/12 08:15:46;;;;;;;1.43;1.00;;;21.10;58.60;;;;;;5044556;28;20203;-86
2022/04/12 08:18:12;;;;;;;4.30;1.33;;;20.80;62.10;;;;;;5045232;28;20193;-86
2022/04/12 08:20:38;;;;;;;2.60;1.30;;;20.40;63.50;;;;;;5044948;28;20203;-86
2022/04/12 08:23:03;;;;;;;4.40;1.10;;;20.40;63.20;;;;;;5044423;28;20274;-86
2022/04/12 08:25:29;;;;;;;3.80;1.20;;;20.30;62.40;;;;;;5049346;28;20183;-84
2022/04/12 08:27:55;;;;;;;3.67;1.30;;;20.60;58.80;;;;;;5058993;28;20173;-84
2022/04/12 08:30:21;;;;;;;5.63;1.20;;;20.60;57.90;;;;;;5057730;28;20182;-85
2022/04/12 08:32:47;;;;;;;1.60;1.00;;;20.40;55.60;;;;;;5046860;28;20182;-85
2022/04/12 08:35:13;;;;;;;6.03;1.30;;;20.30;61.00;;;;;;5038228;28;20210;-85
2022/04/12 08:37:39;;;;;;;3.50;1.13;;;20.30;57.40;;;;;;5037993;28;20566;-85
2022/04/12 08:40:06;;;;;;;5.40;1.37;;;20.50;58.90;;;;;;5036254;28;20205;-85
2022/04/12 08:42:32;;;;;;;5.97;1.23;;;20.70;58.80;;;;;;5036115;28;20205;-85
2022/04/12 08:44:58;;;;;;;1.37;1.27;;;20.80;59.70;;;;;;5036541;28;20182;-85
2022/04/12 08:47:24;;;;;;;2.37;1.03;;;21.10;62.50;;;;;;5035926;28;20182;-83
2022/04/12 08:49:50;;;;;;;1.07;1.00;;;21.40;60.80;;;;;;5036277;28;20237;-85
2022/04/12 08:52:16;;;;;;;5.67;1.40;;;21.00;59.20;;;;;;5038812;28;20186;-83
2022/04/12 08:54:43;;;;;;;3.97;1.27;;;20.60;62.30;;;;;;5038316;28;20604;-83
2022/04/12 08:57:10;;;;;;;3.90;1.43;;;20.60;61.50;;;;;;5037519;28;20178;-82
2022/04/12 08:59:37;;;;;;;4.33;1.30;;;20.50;61.90;;;;;;5039003;28;20219;-82
2022/04/12 09:02:07;;;;;;;2.30;1.30;;;20.30;64.00;;;;;;5038868;28;20197;-83
2022/04/12 09:04:33;;;;;;;3.53;1.40;;;20.60;66.80;;;;;;5038568;28;20183;-82
2022/04/12 09:07:00;;;;;;;2.13;1.20;;;20.80;68.90;;;;;;5037910;28;20178;-82
2022/04/12 09:09:30;;;;;;;1.63;1.27;;;20.80;65.60;;;;;;5040182;28;20202;-82
2022/04/12 09:12:09;;;;;;;1.97;1.40;;;20.90;63.50;;;;;;5044219;28;20609;-82
2022/04/12 09:14:54;;;;;;;3.43;1.53;;;21.10;68.40;;;;;;5044453;28;20296;-82
2022/04/12 09:17:35;;;;;;;2.10;1.50;;;20.80;63.10;;;;;;5044799;28;20171;-83
2022/04/12 09:20:03;;;;;;;4.30;1.80;;;20.40;61.70;;;;;;5044793;28;20208;-83
2022/04/12 09:22:31;;;;;;;3.03;1.60;;;20.60;64.70;;;;;;5044854;28;20180;-83
2022/04/12 09:25:02;;;;;;;3.20;1.40;;;20.90;65.50;;;;;;5047031;28;20245;-83
2022/04/12 09:27:31;;;;;;;3.87;1.43;;;20.80;58.90;;;;;;5042644;28;20334;-81
2022/04/12 09:30:00;;;;;;;2.30;1.53;;;20.70;59.10;;;;;;5039814;28;20278;-81
2022/04/12 09:32:28;;;;;;;2.93;1.20;;;20.80;56.30;;;;;;5042871;28;20207;-83
2022/04/12 09:34:55;;;;;;;3.10;1.27;;;20.70;56.70;;;;;;5044194;28;20205;-83
2022/04/12 09:37:27;;;;;;;1.37;1.00;;;20.80;57.20;;;;;;5044313;28;20203;-83
2022/04/12 09:39:54;;;;;;;5.80;1.20;;;20.60;56.30;;;;;;5043501;28;20544;-84
2022/04/12 09:42:39;;;;;;;2.53;1.60;;;20.30;56.40;;;;;;5040546;28;20629;-83
2022/04/12 09:45:06;;;;;;;3.17;1.20;;;20.40;57.80;;;;;;5040442;28;20205;-83
2022/04/12 09:47:32;;;;;;;1.73;1.20;;;20.60;58.20;;;;;;5039933;28;20629;-83
2022/04/12 09:50:00;;;;;;;5.77;1.37;;;20.60;56.60;;;;;;5040282;28;20213;-83
2022/04/12 09:52:27;;;;;;;2.23;1.17;;;20.50;55.80;;;;;;5046641;28;20186;-83
2022/04/12 09:54:54;;;;;;;3.50;1.30;;;20.80;58.00;;;;;;5040384;28;20221;-83
2022/04/12 09:57:21;;;;;;;3.47;1.00;;;20.80;57.00;;;;;;5041460;28;20213;-84
2022/04/12 09:59:47;;;;;;;1.50;1.07;;;20.80;56.60;;;;;;5041876;28;20254;-84
2022/04/12 10:02:14;;;;;;;2.40;0.90;;;20.90;57.80;;;;;;5043651;28;20261;-83
2022/04/12 10:04:42;;;;;;;1.40;0.80;;;21.00;55.80;;;;;;5043411;28;20186;-83
2022/04/12 10:07:10;;;;;;;2.50;1.20;;;21.00;56.00;;;;;;5043444;28;20187;-83
2022/04/12 10:09:38;;;;;;;1.10;1.00;;;21.10;55.80;;;;;;5039706;28;20203;-83
2022/04/12 10:12:08;;;;;;;16.93;2.47;;;21.30;58.40;;;;;;5041836;28;20221;-83
2022/04/12 10:14:35;;;;;;;3.37;1.63;;;21.50;55.00;;;;;;5039216;28;20218;-83
2022/04/12 10:17:02;;;;;;;7.20;2.43;;;21.60;56.40;;;;;;5041795;28;20186;-82
2022/04/12 10:19:29;;;;;;;9.53;1.87;;;21.70;53.40;;;;;;5038897;28;20253;-82
2022/04/12 10:21:55;;;;;;;1.10;0.77;;;21.70;54.20;;;;;;5040000;28;20179;-83
2022/04/12 10:24:22;;;;;;;1.73;0.80;;;21.90;56.00;;;;;;5042741;28;20237;-84
2022/04/12 10:26:50;;;;;;;1.13;0.80;;;22.20;51.20;;;;;;5050446;28;20203;-84
2022/04/12 10:29:16;;;;;;;3.27;1.13;;;22.30;51.10;;;;;;5047904;28;20197;-83
2022/04/12 10:31:56;;;;;;;3.17;1.30;;;22.30;54.20;;;;;;5045802;28;20183;-84
2022/04/12 10:34:23;;;;;;;1.97;0.83;;;22.70;51.90;;;;;;5039945;28;20183;-83
2022/04/12 10:36:54;;;;;;;9.37;1.83;;;22.90;49.70;;;;;;5040829;28;20226;-83
2022/04/12 10:39:32;;;;;;;2.17;1.07;;;22.90;51.80;;;;;;5041411;28;20202;-84
2022/04/12 10:42:03;;;;;;;1.67;0.90;;;22.60;50.40;;;;;;5041710;28;20179;-84
2022/04/12 10:44:36;;;;;;;2.97;0.70;;;22.10;50.40;;;;;;5043090;28;20183;-84
2022/04/12 10:47:03;;;;;;;2.77;0.90;;;22.10;50.90;;;;;;5040670;28;20696;-83
2022/04/12 10:49:36;;;;;;;2.90;1.00;;;22.20;50.60;;;;;;5041670;28;20195;-83
2022/04/12 10:52:05;;;;;;;4.60;0.90;;;22.30;51.90;;;;;;5040304;28;20174;-83
2022/04/12 10:54:35;;;;;;;1.13;0.73;;;22.90;54.00;;;;;;5040264;28;20189;-84
2022/04/12 10:57:27;;;;;;;7.77;1.17;;;23.10;52.80;;;;;;5041398;28;20234;-84
2022/04/12 11:00:16;;;;;;;3.77;1.03;;;22.90;51.30;;;;;;5039346;28;20684;-84
2022/04/12 11:03:00;;;;;;;2.83;1.20;;;23.10;50.10;;;;;;5041106;28;20257;-83
2022/04/12 11:05:39;;;;;;;2.50;0.90;;;23.50;51.80;;;;;;5040927;28;20189;-83
2022/04/12 11:08:34;;;;;;;3.37;0.80;;;23.50;49.40;;;;;;5041391;28;20204;-84
2022/04/12 11:10:59;;;;;;;2.53;0.97;;;23.50;51.40;;;;;;5041171;28;20204;-84
2022/04/12 11:13:28;;;;;;;1.63;0.90;;;23.80;51.80;;;;;;5042928;28;20187;-84
2022/04/12 11:16:15;;;;;;;2.57;1.10;;;24.00;47.80;;;;;;5041909;28;20241;-84
2022/04/12 11:19:02;;;;;;;4.43;1.07;;;23.80;48.70;;;;;;5047492;28;20189;-84
2022/04/12 11:21:56;;;;;;;11.03;1.60;;;24.10;49.80;;;;;;5042391;28;20159;-86
2022/04/12 11:24:25;;;;;;;5.70;1.37;;;24.10;48.40;;;;;;5039226;28;20235;-85
2022/04/12 11:27:18;;;;;;;3.63;0.80;;;24.20;49.20;;;;;;5042978;28;20174;-86
2022/04/12 11:29:43;;;;;;;1.30;1.00;;;24.20;46.30;;;;;;5041481;28;20211;-84
2022/04/12 11:32:10;;;;;;;1.90;1.17;;;24.30;47.30;;;;;;5042489;28;20177;-85
2022/04/12 11:34:38;;;;;;;3.13;1.03;;;24.40;48.30;;;;;;5041285;28;20560;-84
2022/04/12 11:37:09;;;;;;;5.57;1.43;;;24.50;46.00;;;;;;5041441;28;20198;-84
2022/04/12 11:39:43;;;;;;;8.17;1.57;;;24.70;50.40;;;;;;5042434;28;20203;-84
2022/04/12 11:42:12;;;;;;;4.93;0.83;;;25.30;50.30;;;;;;5041818;28;20175;-83
2022/04/12 11:44:37;;;;;;;1.63;1.00;;;25.60;45.10;;;;;;5038109;28;20189;-84
2022/04/12 11:47:08;;;;;;;2.00;0.80;;;25.40;48.60;;;;;;5041933;28;20189;-84
2022/04/12 11:49:40;;;;;;;6.87;0.97;;;25.30;43.70;;;;;;5042678;28;20203;-83
2022/04/12 11:52:09;;;;;;;2.03;0.90;;;25.10;44.50;;;;;;5042775;28;20196;-82
2022/04/12 11:54:37;;;;;;;1.33;0.77;;;25.70;46.30;;;;;;5043396;28;20213;-83
2022/04/12 11:57:22;;;;;;;2.00;0.87;;;26.10;43.50;;;;;;5041477;28;20181;-83
2022/04/12 11:59:52;;;;;;;9.10;1.70;;;25.90;40.70;;;;;;5043129;28;20258;-83
2022/04/12 12:02:20;;;;;;;7.93;1.77;;;26.30;47.10;;;;;;5042925;28;20177;-83
2022/04/12 12:04:48;;;;;;;5.93;1.60;;;27.00;44.30;;;;;;5043797;28;20222;-84
2022/04/12 12:07:15;;;;;;;3.03;0.90;;;27.60;42.40;;;;;;5042715;28;20191;-83
2022/04/12 12:10:04;;;;;;;1.80;1.13;;;27.80;39.10;;;;;;5040297;28;20210;-83
2022/04/12 12:12:40;;;;;;;1.00;0.70;;;27.20;40.90;;;;;;5047588;28;20198;-82
2022/04/12 12:15:19;;;;;;;2.37;0.90;;;26.50;41.60;;;;;;5045659;28;20191;-84
2022/04/12 12:17:48;;;;;;;7.77;1.40;;;26.80;43.30;;;;;;5051476;28;20180;-84
2022/04/12 12:20:15;;;;;;;0.97;0.87;;;26.90;44.20;;;;;;5042570;28;20275;-84
2022/04/12 12:22:45;;;;;;;2.23;0.73;;;27.10;43.80;;;;;;5043652;28;20180;-84
2022/04/12 12:25:18;;;;;;;1.70;1.00;;;27.70;42.30;;;;;;5044611;28;20208;-83
2022/04/12 12:27:52;;;;;;;2.83;1.07;;;27.90;45.50;;;;;;5040327;28;20575;-84
2022/04/12 12:30:24;;;;;;;2.23;0.87;;;28.30;42.20;;;;;;5041827;28;20201;-84
2022/04/12 12:32:56;;;;;;;1.30;0.80;;;28.70;41.60;;;;;;5045130;28;20184;-84
2022/04/12 12:35:25;;;;;;;1.97;0.90;;;28.70;43.90;;;;;;5043542;28;20209;-83
2022/04/12 12:37:51;;;;;;;0.97;0.87;;;28.90;43.10;;;;;;5043765;28;20281;-84
2022/04/12 12:40:21;;;;;;;1.73;1.00;;;28.90;41.50;;;;;;5045716;28;20221;-84
2022/04/12 12:42:48;;;;;;;22.60;3.37;;;28.80;40.60;;;;;;5043796;28;20219;-84
2022/04/12 12:45:25;;;;;;;2.93;1.00;;;28.70;40.10;;;;;;5043307;28;20178;-84
2022/04/12 12:47:53;;;;;;;13.47;2.60;;;28.50;40.00;;;;;;5043876;28;20174;-85
2022/04/12 12:50:21;;;;;;;4.37;1.03;;;28.90;42.40;;;;;;5044231;28;20548;-86
2022/04/12 12:52:48;;;;;;;65.17;9.53;;;29.20;40.00;;;;;;5043458;28;20182;-84
2022/04/12 12:55:19;;;;;;;4.90;1.00;;;29.20;39.00;;;;;;5045367;28;20209;-84
2022/04/12 12:57:47;;;;;;;5.17;1.27;;;29.50;37.50;;;;;;5043885;28;20178;-85
2022/04/12 13:00:15;;;;;;;3.70;1.17;;;29.20;37.30;;;;;;5042854;28;20657;-84